sensor_id;sensor_type;location;lat;lon;timestamp;pressure;altitude;pressure_sealevel;temperature;humidity
47935;BME280;33704;43.592;-79.628;2023-12-14T00:00:20;101740.23;;;35.39;18.11
47935;BME280;33704;43.592;-79.628;2023-12-14T00:00:52;101740.33;;;35.38;18.43
47935;BME280;33704;43.592;-79.628;2023-12-14T00:01:24;101740.84;;;35.38;18.33
47935;BME280;33704;43.592;-79.628;2023-12-14T00:01:56;101740.72;;;35.38;18.42
47935;BME280;33704;43.592;-79.628;2023-12-14T00:02:28;101742.20;;;35.37;18.56
47935;BME280;33704;43.592;-79.628;2023-12-14T00:03:02;101741.98;;;35.35;18.44
47935;BME280;33704;43.592;-79.628;2023-12-14T00:03:34;101742.59;;;35.35;18.43
47935;BME280;33704;43.592;-79.628;2023-12-14T00:04:06;101742.14;;;35.35;18.36
47935;BME280;33704;43.592;-79.628;2023-12-14T00:04:38;101743.67;;;35.40;18.36
47935;BME280;33704;43.592;-79.628;2023-12-14T00:05:10;101743.31;;;35.36;18.52
47935;BME280;33704;43.592;-79.628;2023-12-14T00:05:42;101744.41;;;35.30;18.40
47935;BME280;33704;43.592;-79.628;2023-12-14T00:06:14;101745.37;;;35.30;19.20
47935;BME280;33704;43.592;-79.628;2023-12-14T00:06:46;101749.18;;;35.28;18.73
47935;BME280;33704;43.592;-79.628;2023-12-14T00:07:18;101752.52;;;35.39;18.40
47935;BME280;33704;43.592;-79.628;2023-12-14T00:07:50;101751.31;;;35.40;18.14
47935;BME280;33704;43.592;-79.628;2023-12-14T00:08:22;101752.33;;;35.39;18.52
47935;BME280;33704;43.592;-79.628;2023-12-14T00:08:54;101753.48;;;35.36;18.32
47935;BME280;33704;43.592;-79.628;2023-12-14T00:09:26;101754.78;;;35.40;18.28
47935;BME280;33704;43.592;-79.628;2023-12-14T00:09:58;101753.30;;;35.39;18.54
47935;BME280;33704;43.592;-79.628;2023-12-14T00:10:31;101755.42;;;35.39;18.41
47935;BME280;33704;43.592;-79.628;2023-12-14T00:11:04;101755.02;;;35.36;18.46
47935;BME280;33704;43.592;-79.628;2023-12-14T00:11:38;101754.71;;;35.31;18.43
47935;BME280;33704;43.592;-79.628;2023-12-14T00:12:12;101756.20;;;35.33;18.56
47935;BME280;33704;43.592;-79.628;2023-12-14T00:12:44;101755.46;;;35.36;18.28
47935;BME280;33704;43.592;-79.628;2023-12-14T00:13:16;101757.18;;;35.35;18.39
47935;BME280;33704;43.592;-79.628;2023-12-14T00:13:48;101759.82;;;35.32;18.63
47935;BME280;33704;43.592;-79.628;2023-12-14T00:14:20;101761.57;;;35.36;18.41
47935;BME280;33704;43.592;-79.628;2023-12-14T00:14:52;101761.85;;;35.34;18.50
47935;BME280;33704;43.592;-79.628;2023-12-14T00:15:24;101762.18;;;35.36;18.40
47935;BME280;33704;43.592;-79.628;2023-12-14T00:15:56;101763.08;;;35.33;18.30
47935;BME280;33704;43.592;-79.628;2023-12-14T00:16:28;101762.34;;;35.34;18.53
47935;BME280;33704;43.592;-79.628;2023-12-14T00:17:02;101761.16;;;35.35;18.55
47935;BME280;33704;43.592;-79.628;2023-12-14T00:17:34;101762.46;;;35.35;18.32
47935;BME280;33704;43.592;-79.628;2023-12-14T00:18:05;101762.39;;;35.35;18.06
47935;BME280;33704;43.592;-79.628;2023-12-14T00:18:37;101760.45;;;35.37;18.21
47935;BME280;33704;43.592;-79.628;2023-12-14T00:19:09;101761.40;;;35.37;18.16
47935;BME280;33704;43.592;-79.628;2023-12-14T00:19:41;101763.66;;;35.37;18.39
47935;BME280;33704;43.592;-79.628;2023-12-14T00:20:13;101765.99;;;35.38;18.27
47935;BME280;33704;43.592;-79.628;2023-12-14T00:20:45;101767.52;;;35.37;18.24
47935;BME280;33704;43.592;-79.628;2023-12-14T00:21:17;101769.26;;;35.35;18.82
47935;BME280;33704;43.592;-79.628;2023-12-14T00:21:49;101770.26;;;35.40;18.18
47935;BME280;33704;43.592;-79.628;2023-12-14T00:22:22;101772.90;;;35.34;18.98
47935;BME280;33704;43.592;-79.628;2023-12-14T00:22:54;101772.35;;;35.31;18.81
47935;BME280;33704;43.592;-79.628;2023-12-14T00:23:26;101775.13;;;35.39;18.49
47935;BME280;33704;43.592;-79.628;2023-12-14T00:23:58;101777.91;;;35.35;19.08
47935;BME280;33704;43.592;-79.628;2023-12-14T00:24:30;101779.03;;;35.36;18.77
47935;BME280;33704;43.592;-79.628;2023-12-14T00:25:03;101777.41;;;35.40;18.44
47935;BME280;33704;43.592;-79.628;2023-12-14T00:25:35;101780.15;;;35.37;19.28
47935;BME280;33704;43.592;-79.628;2023-12-14T00:26:07;101780.70;;;35.40;19.67
47935;BME280;33704;43.592;-79.628;2023-12-14T00:26:38;101780.80;;;35.36;19.28
47935;BME280;33704;43.592;-79.628;2023-12-14T00:27:11;101781.56;;;35.38;18.86
47935;BME280;33704;43.592;-79.628;2023-12-14T00:27:43;101780.90;;;35.38;19.16
47935;BME280;33704;43.592;-79.628;2023-12-14T00:28:14;101783.83;;;35.36;19.44
47935;BME280;33704;43.592;-79.628;2023-12-14T00:28:47;101783.17;;;35.37;19.73
47935;BME280;33704;43.592;-79.628;2023-12-14T00:29:19;101786.17;;;35.36;19.87
47935;BME280;33704;43.592;-79.628;2023-12-14T00:29:56;101784.84;;;35.40;19.57
47935;BME280;33704;43.592;-79.628;2023-12-14T00:30:28;101784.95;;;35.36;19.40
47935;BME280;33704;43.592;-79.628;2023-12-14T00:31:01;101784.18;;;35.36;19.27
47935;BME280;33704;43.592;-79.628;2023-12-14T00:31:33;101785.88;;;35.39;19.42
47935;BME280;33704;43.592;-79.628;2023-12-14T00:32:05;101784.97;;;35.34;20.31
47935;BME280;33704;43.592;-79.628;2023-12-14T00:32:37;101786.31;;;35.33;20.46
47935;BME280;33704;43.592;-79.628;2023-12-14T00:33:09;101784.44;;;35.35;19.80
47935;BME280;33704;43.592;-79.628;2023-12-14T00:33:42;101783.44;;;35.36;19.77
47935;BME280;33704;43.592;-79.628;2023-12-14T00:34:14;101785.40;;;35.37;19.86
47935;BME280;33704;43.592;-79.628;2023-12-14T00:34:45;101784.47;;;35.40;19.39
47935;BME280;33704;43.592;-79.628;2023-12-14T00:35:17;101782.57;;;35.40;19.86
47935;BME280;33704;43.592;-79.628;2023-12-14T00:35:49;101783.65;;;35.40;20.00
47935;BME280;33704;43.592;-79.628;2023-12-14T00:36:23;101786.30;;;35.36;20.70
47935;BME280;33704;43.592;-79.628;2023-12-14T00:36:54;101786.37;;;35.35;20.83
47935;BME280;33704;43.592;-79.628;2023-12-14T00:37:26;101787.14;;;35.33;20.08
47935;BME280;33704;43.592;-79.628;2023-12-14T00:37:58;101786.28;;;35.35;20.21
47935;BME280;33704;43.592;-79.628;2023-12-14T00:38:31;101786.54;;;35.35;20.50
47935;BME280;33704;43.592;-79.628;2023-12-14T00:39:04;101788.01;;;35.37;20.30
47935;BME280;33704;43.592;-79.628;2023-12-14T00:39:35;101785.60;;;35.36;20.23
47935;BME280;33704;43.592;-79.628;2023-12-14T00:40:08;101789.11;;;35.38;20.42
47935;BME280;33704;43.592;-79.628;2023-12-14T00:40:40;101790.04;;;35.42;21.11
47935;BME280;33704;43.592;-79.628;2023-12-14T00:41:12;101788.56;;;35.44;21.28
47935;BME280;33704;43.592;-79.628;2023-12-14T00:41:44;101790.94;;;35.47;21.10
47935;BME280;33704;43.592;-79.628;2023-12-14T00:42:16;101792.75;;;35.41;20.88
47935;BME280;33704;43.592;-79.628;2023-12-14T00:42:49;101792.91;;;35.41;20.65
47935;BME280;33704;43.592;-79.628;2023-12-14T00:43:21;101792.81;;;35.40;21.10
47935;BME280;33704;43.592;-79.628;2023-12-14T00:43:58;101792.48;;;35.41;20.73
47935;BME280;33704;43.592;-79.628;2023-12-14T00:44:30;101790.19;;;35.41;20.56
47935;BME280;33704;43.592;-79.628;2023-12-14T00:45:03;101791.79;;;35.41;20.59
47935;BME280;33704;43.592;-79.628;2023-12-14T00:45:35;101789.78;;;35.44;20.75
47935;BME280;33704;43.592;-79.628;2023-12-14T00:46:07;101789.80;;;35.41;20.76
47935;BME280;33704;43.592;-79.628;2023-12-14T00:46:39;101789.23;;;35.44;20.58
47935;BME280;33704;43.592;-79.628;2023-12-14T00:47:11;101789.78;;;35.46;20.72
47935;BME280;33704;43.592;-79.628;2023-12-14T00:47:43;101790.36;;;35.44;20.59
47935;BME280;33704;43.592;-79.628;2023-12-14T00:48:15;101790.08;;;35.45;20.63
47935;BME280;33704;43.592;-79.628;2023-12-14T00:48:47;101788.39;;;35.47;20.52
47935;BME280;33704;43.592;-79.628;2023-12-14T00:49:19;101788.63;;;35.46;20.58
47935;BME280;33704;43.592;-79.628;2023-12-14T00:49:51;101788.76;;;35.43;20.58
47935;BME280;33704;43.592;-79.628;2023-12-14T00:50:23;101789.76;;;35.44;20.65
47935;BME280;33704;43.592;-79.628;2023-12-14T00:50:55;101789.30;;;35.43;20.22
47935;BME280;33704;43.592;-79.628;2023-12-14T00:51:27;101789.80;;;35.45;20.93
47935;BME280;33704;43.592;-79.628;2023-12-14T00:52:00;101789.76;;;35.45;20.77
47935;BME280;33704;43.592;-79.628;2023-12-14T00:52:36;101791.38;;;35.42;20.44
47935;BME280;33704;43.592;-79.628;2023-12-14T00:53:08;101793.22;;;35.41;20.23
47935;BME280;33704;43.592;-79.628;2023-12-14T00:53:41;101792.69;;;35.46;20.36
47935;BME280;33704;43.592;-79.628;2023-12-14T00:54:13;101793.03;;;35.46;20.25
47935;BME280;33704;43.592;-79.628;2023-12-14T00:54:44;101792.49;;;35.45;20.33
47935;BME280;33704;43.592;-79.628;2023-12-14T00:55:16;101792.78;;;35.46;20.50
47935;BME280;33704;43.592;-79.628;2023-12-14T00:55:48;101793.12;;;35.47;20.10
47935;BME280;33704;43.592;-79.628;2023-12-14T00:56:21;101790.94;;;35.48;20.03
47935;BME280;33704;43.592;-79.628;2023-12-14T00:56:52;101789.32;;;35.47;20.37
47935;BME280;33704;43.592;-79.628;2023-12-14T00:57:24;101786.37;;;35.48;20.37
47935;BME280;33704;43.592;-79.628;2023-12-14T00:57:56;101785.28;;;35.48;20.37
47935;BME280;33704;43.592;-79.628;2023-12-14T00:58:28;101785.35;;;35.50;20.15
47935;BME280;33704;43.592;-79.628;2023-12-14T00:59:00;101787.07;;;35.48;20.09
47935;BME280;33704;43.592;-79.628;2023-12-14T00:59:32;101786.41;;;35.48;20.09
47935;BME280;33704;43.592;-79.628;2023-12-14T01:00:06;101786.64;;;35.48;20.64
47935;BME280;33704;43.592;-79.628;2023-12-14T01:00:38;101788.55;;;35.48;20.00
47935;BME280;33704;43.592;-79.628;2023-12-14T01:01:11;101789.57;;;35.45;20.27
47935;BME280;33704;43.592;-79.628;2023-12-14T01:01:43;101788.05;;;35.48;20.38
47935;BME280;33704;43.592;-79.628;2023-12-14T01:02:15;101789.00;;;35.47;20.58
47935;BME280;33704;43.592;-79.628;2023-12-14T01:02:46;101790.18;;;35.45;20.32
47935;BME280;33704;43.592;-79.628;2023-12-14T01:03:19;101790.68;;;35.43;19.99
47935;BME280;33704;43.592;-79.628;2023-12-14T01:03:51;101790.73;;;35.44;20.36
47935;BME280;33704;43.592;-79.628;2023-12-14T01:04:22;101791.08;;;35.41;20.42
47935;BME280;33704;43.592;-79.628;2023-12-14T01:04:54;101790.28;;;35.43;20.06
47935;BME280;33704;43.592;-79.628;2023-12-14T01:05:26;101790.77;;;35.43;20.03
47935;BME280;33704;43.592;-79.628;2023-12-14T01:05:58;101790.19;;;35.43;20.16
47935;BME280;33704;43.592;-79.628;2023-12-14T01:06:30;101789.09;;;35.42;19.87
47935;BME280;33704;43.592;-79.628;2023-12-14T01:07:02;101786.43;;;35.43;19.73
47935;BME280;33704;43.592;-79.628;2023-12-14T01:07:34;101784.26;;;35.43;19.69
47935;BME280;33704;43.592;-79.628;2023-12-14T01:08:06;101783.75;;;35.42;19.84
47935;BME280;33704;43.592;-79.628;2023-12-14T01:08:40;101782.54;;;35.42;19.90
47935;BME280;33704;43.592;-79.628;2023-12-14T01:09:12;101784.16;;;35.42;19.56
47935;BME280;33704;43.592;-79.628;2023-12-14T01:09:43;101784.14;;;35.42;19.76
47935;BME280;33704;43.592;-79.628;2023-12-14T01:10:15;101783.16;;;35.41;19.90
47935;BME280;33704;43.592;-79.628;2023-12-14T01:10:47;101781.65;;;35.41;19.89
47935;BME280;33704;43.592;-79.628;2023-12-14T01:11:21;101779.47;;;35.43;19.72
47935;BME280;33704;43.592;-79.628;2023-12-14T01:11:53;101777.55;;;35.41;19.55
47935;BME280;33704;43.592;-79.628;2023-12-14T01:12:25;101778.93;;;35.42;19.55
47935;BME280;33704;43.592;-79.628;2023-12-14T01:12:57;101779.85;;;35.41;19.60
47935;BME280;33704;43.592;-79.628;2023-12-14T01:13:29;101778.43;;;35.43;19.80
47935;BME280;33704;43.592;-79.628;2023-12-14T01:14:01;101780.55;;;35.40;20.21
47935;BME280;33704;43.592;-79.628;2023-12-14T01:14:33;101779.22;;;35.42;19.93
47935;BME280;33704;43.592;-79.628;2023-12-14T01:15:06;101780.52;;;35.43;19.71
47935;BME280;33704;43.592;-79.628;2023-12-14T01:15:39;101782.16;;;35.41;19.88
47935;BME280;33704;43.592;-79.628;2023-12-14T01:16:11;101782.14;;;35.41;19.80
47935;BME280;33704;43.592;-79.628;2023-12-14T01:16:43;101782.11;;;35.38;20.15
47935;BME280;33704;43.592;-79.628;2023-12-14T01:17:15;101783.41;;;35.36;19.88
47935;BME280;33704;43.592;-79.628;2023-12-14T01:17:47;101784.79;;;35.38;19.95
47935;BME280;33704;43.592;-79.628;2023-12-14T01:18:20;101784.60;;;35.38;19.34
47935;BME280;33704;43.592;-79.628;2023-12-14T01:18:51;101784.65;;;35.40;19.54
47935;BME280;33704;43.592;-79.628;2023-12-14T01:19:24;101782.48;;;35.41;19.71
47935;BME280;33704;43.592;-79.628;2023-12-14T01:19:55;101785.63;;;35.39;19.82
47935;BME280;33704;43.592;-79.628;2023-12-14T01:20:27;101784.40;;;35.42;19.25
47935;BME280;33704;43.592;-79.628;2023-12-14T01:21:04;101783.15;;;35.40;19.98
47935;BME280;33704;43.592;-79.628;2023-12-14T01:21:36;101780.31;;;35.39;20.02
47935;BME280;33704;43.592;-79.628;2023-12-14T01:22:08;101781.42;;;35.42;19.71
47935;BME280;33704;43.592;-79.628;2023-12-14T01:22:40;101778.19;;;35.42;19.23
47935;BME280;33704;43.592;-79.628;2023-12-14T01:23:12;101777.31;;;35.36;19.49
47935;BME280;33704;43.592;-79.628;2023-12-14T01:23:44;101777.30;;;35.40;19.51
47935;BME280;33704;43.592;-79.628;2023-12-14T01:24:16;101778.59;;;35.36;19.39
47935;BME280;33704;43.592;-79.628;2023-12-14T01:24:48;101778.79;;;35.39;19.33
47935;BME280;33704;43.592;-79.628;2023-12-14T01:25:21;101777.89;;;35.36;19.56
47935;BME280;33704;43.592;-79.628;2023-12-14T01:25:52;101779.76;;;35.35;19.37
47935;BME280;33704;43.592;-79.628;2023-12-14T01:26:24;101778.03;;;35.37;19.46
47935;BME280;33704;43.592;-79.628;2023-12-14T01:26:56;101775.64;;;35.36;19.00
47935;BME280;33704;43.592;-79.628;2023-12-14T01:27:28;101772.82;;;35.40;19.56
47935;BME280;33704;43.592;-79.628;2023-12-14T01:28:02;101772.33;;;35.40;18.93
47935;BME280;33704;43.592;-79.628;2023-12-14T01:28:34;101771.78;;;35.38;19.10
47935;BME280;33704;43.592;-79.628;2023-12-14T01:29:06;101771.63;;;35.39;19.41
47935;BME280;33704;43.592;-79.628;2023-12-14T01:29:38;101770.66;;;35.40;19.35
47935;BME280;33704;43.592;-79.628;2023-12-14T01:30:17;101771.58;;;35.39;19.13
47935;BME280;33704;43.592;-79.628;2023-12-14T01:30:49;101771.20;;;35.38;19.47
47935;BME280;33704;43.592;-79.628;2023-12-14T01:31:21;101774.38;;;35.36;19.30
47935;BME280;33704;43.592;-79.628;2023-12-14T01:31:53;101774.67;;;35.34;19.32
47935;BME280;33704;43.592;-79.628;2023-12-14T01:32:25;101775.75;;;35.32;19.41
47935;BME280;33704;43.592;-79.628;2023-12-14T01:32:57;101776.38;;;35.35;19.08
47935;BME280;33704;43.592;-79.628;2023-12-14T01:33:28;101777.62;;;35.34;19.25
47935;BME280;33704;43.592;-79.628;2023-12-14T01:34:00;101777.62;;;35.34;19.40
47935;BME280;33704;43.592;-79.628;2023-12-14T01:34:32;101779.71;;;35.35;19.25
47935;BME280;33704;43.592;-79.628;2023-12-14T01:35:05;101780.41;;;35.37;19.06
47935;BME280;33704;43.592;-79.628;2023-12-14T01:35:37;101781.48;;;35.38;19.20
47935;BME280;33704;43.592;-79.628;2023-12-14T01:36:11;101779.11;;;35.36;19.07
47935;BME280;33704;43.592;-79.628;2023-12-14T01:36:42;101781.03;;;35.37;19.03
47935;BME280;33704;43.592;-79.628;2023-12-14T01:37:14;101782.82;;;35.35;18.96
47935;BME280;33704;43.592;-79.628;2023-12-14T01:37:51;101780.96;;;35.33;19.00
47935;BME280;33704;43.592;-79.628;2023-12-14T01:38:23;101781.95;;;35.33;19.28
47935;BME280;33704;43.592;-79.628;2023-12-14T01:38:56;101782.40;;;35.36;18.83
47935;BME280;33704;43.592;-79.628;2023-12-14T01:39:28;101781.37;;;35.36;18.98
47935;BME280;33704;43.592;-79.628;2023-12-14T01:40:02;101782.48;;;35.35;19.02
47935;BME280;33704;43.592;-79.628;2023-12-14T01:40:34;101782.46;;;35.31;18.84
47935;BME280;33704;43.592;-79.628;2023-12-14T01:41:06;101782.20;;;35.33;18.84
47935;BME280;33704;43.592;-79.628;2023-12-14T01:41:37;101780.57;;;35.33;18.82
47935;BME280;33704;43.592;-79.628;2023-12-14T01:42:09;101780.06;;;35.34;19.08
47935;BME280;33704;43.592;-79.628;2023-12-14T01:42:43;101779.16;;;35.33;18.88
47935;BME280;33704;43.592;-79.628;2023-12-14T01:43:15;101778.42;;;35.29;19.01
47935;BME280;33704;43.592;-79.628;2023-12-14T01:43:46;101778.52;;;35.31;18.87
47935;BME280;33704;43.592;-79.628;2023-12-14T01:44:19;101775.68;;;35.30;18.81
47935;BME280;33704;43.592;-79.628;2023-12-14T01:44:51;101776.40;;;35.25;18.82
47935;BME280;33704;43.592;-79.628;2023-12-14T01:45:22;101775.94;;;35.28;18.72
47935;BME280;33704;43.592;-79.628;2023-12-14T01:45:54;101776.81;;;35.29;18.86
47935;BME280;33704;43.592;-79.628;2023-12-14T01:46:26;101775.70;;;35.27;18.90
47935;BME280;33704;43.592;-79.628;2023-12-14T01:46:58;101774.94;;;35.26;18.90
47935;BME280;33704;43.592;-79.628;2023-12-14T01:47:30;101776.98;;;35.29;18.84
47935;BME280;33704;43.592;-79.628;2023-12-14T01:48:02;101778.27;;;35.27;18.99
47935;BME280;33704;43.592;-79.628;2023-12-14T01:48:34;101776.48;;;35.28;18.75
47935;BME280;33704;43.592;-79.628;2023-12-14T01:49:06;101778.03;;;35.31;18.82
47935;BME280;33704;43.592;-79.628;2023-12-14T01:49:38;101778.90;;;35.31;18.56
47935;BME280;33704;43.592;-79.628;2023-12-14T01:50:11;101777.99;;;35.28;18.81
47935;BME280;33704;43.592;-79.628;2023-12-14T01:50:42;101776.71;;;35.30;18.97
47935;BME280;33704;43.592;-79.628;2023-12-14T01:51:14;101778.50;;;35.31;18.64
47935;BME280;33704;43.592;-79.628;2023-12-14T01:51:46;101779.26;;;35.30;18.64
47935;BME280;33704;43.592;-79.628;2023-12-14T01:52:18;101777.84;;;35.31;18.82
47935;BME280;33704;43.592;-79.628;2023-12-14T01:52:50;101778.23;;;35.32;18.79
47935;BME280;33704;43.592;-79.628;2023-12-14T01:53:22;101775.21;;;35.29;18.91
47935;BME280;33704;43.592;-79.628;2023-12-14T01:53:54;101773.07;;;35.28;18.58
47935;BME280;33704;43.592;-79.628;2023-12-14T01:54:26;101772.65;;;35.32;18.52
47935;BME280;33704;43.592;-79.628;2023-12-14T01:54:58;101771.29;;;35.25;18.83
47935;BME280;33704;43.592;-79.628;2023-12-14T01:55:31;101769.84;;;35.29;18.64
47935;BME280;33704;43.592;-79.628;2023-12-14T01:56:03;101772.02;;;35.31;18.47
47935;BME280;33704;43.592;-79.628;2023-12-14T01:56:35;101775.77;;;35.34;18.62
47935;BME280;33704;43.592;-79.628;2023-12-14T01:57:07;101776.61;;;35.35;18.50
47935;BME280;33704;43.592;-79.628;2023-12-14T01:57:43;101774.07;;;35.30;18.52
47935;BME280;33704;43.592;-79.628;2023-12-14T01:58:16;101774.43;;;35.31;18.61
47935;BME280;33704;43.592;-79.628;2023-12-14T01:58:47;101773.69;;;35.31;18.59
47935;BME280;33704;43.592;-79.628;2023-12-14T01:59:20;101776.17;;;35.30;18.53
47935;BME280;33704;43.592;-79.628;2023-12-14T01:59:52;101775.31;;;35.28;18.87
47935;BME280;33704;43.592;-79.628;2023-12-14T02:00:39;101776.59;;;35.28;18.66
47935;BME280;33704;43.592;-79.628;2023-12-14T02:01:17;101777.06;;;35.22;18.52
47935;BME280;33704;43.592;-79.628;2023-12-14T02:01:54;101777.97;;;35.26;18.60
47935;BME280;33704;43.592;-79.628;2023-12-14T02:02:26;101777.53;;;35.26;18.49
47935;BME280;33704;43.592;-79.628;2023-12-14T02:02:58;101776.57;;;35.25;18.72
47935;BME280;33704;43.592;-79.628;2023-12-14T02:03:30;101775.56;;;35.26;18.59
47935;BME280;33704;43.592;-79.628;2023-12-14T02:04:02;101780.21;;;35.25;18.51
47935;BME280;33704;43.592;-79.628;2023-12-14T02:04:35;101778.62;;;35.27;18.24
47935;BME280;33704;43.592;-79.628;2023-12-14T02:05:07;101777.19;;;35.29;18.63
47935;BME280;33704;43.592;-79.628;2023-12-14T02:05:39;101778.89;;;35.30;18.93
47935;BME280;33704;43.592;-79.628;2023-12-14T02:06:11;101777.57;;;35.28;18.55
47935;BME280;33704;43.592;-79.628;2023-12-14T02:06:43;101775.30;;;35.29;18.42
47935;BME280;33704;43.592;-79.628;2023-12-14T02:07:15;101775.04;;;35.28;18.34
47935;BME280;33704;43.592;-79.628;2023-12-14T02:07:47;101775.32;;;35.26;18.34
47935;BME280;33704;43.592;-79.628;2023-12-14T02:08:18;101775.04;;;35.26;18.51
47935;BME280;33704;43.592;-79.628;2023-12-14T02:08:50;101778.86;;;35.27;18.57
47935;BME280;33704;43.592;-79.628;2023-12-14T02:09:22;101775.00;;;35.29;18.67
47935;BME280;33704;43.592;-79.628;2023-12-14T02:09:55;101776.57;;;35.28;18.36
47935;BME280;33704;43.592;-79.628;2023-12-14T02:10:27;101775.84;;;35.27;18.42
47935;BME280;33704;43.592;-79.628;2023-12-14T02:11:00;101774.17;;;35.27;18.20
47935;BME280;33704;43.592;-79.628;2023-12-14T02:11:32;101775.84;;;35.27;18.35
47935;BME280;33704;43.592;-79.628;2023-12-14T02:12:04;101773.81;;;35.28;18.39
47935;BME280;33704;43.592;-79.628;2023-12-14T02:12:36;101774.01;;;35.24;18.59
47935;BME280;33704;43.592;-79.628;2023-12-14T02:13:08;101775.06;;;35.26;18.20
47935;BME280;33704;43.592;-79.628;2023-12-14T02:13:40;101774.83;;;35.26;18.29
47935;BME280;33704;43.592;-79.628;2023-12-14T02:14:12;101775.81;;;35.27;18.27
47935;BME280;33704;43.592;-79.628;2023-12-14T02:14:44;101777.00;;;35.25;18.25
47935;BME280;33704;43.592;-79.628;2023-12-14T02:15:16;101779.49;;;35.24;18.22
47935;BME280;33704;43.592;-79.628;2023-12-14T02:15:48;101778.37;;;35.26;18.24
47935;BME280;33704;43.592;-79.628;2023-12-14T02:16:20;101779.99;;;35.27;18.28
47935;BME280;33704;43.592;-79.628;2023-12-14T02:16:52;101781.24;;;35.23;19.33
47935;BME280;33704;43.592;-79.628;2023-12-14T02:17:24;101784.34;;;35.22;19.07
47935;BME280;33704;43.592;-79.628;2023-12-14T02:17:56;101781.72;;;35.25;18.51
47935;BME280;33704;43.592;-79.628;2023-12-14T02:18:28;101782.68;;;35.27;18.22
47935;BME280;33704;43.592;-79.628;2023-12-14T02:18:59;101783.18;;;35.27;18.19
47935;BME280;33704;43.592;-79.628;2023-12-14T02:19:31;101783.19;;;35.27;18.10
47935;BME280;33704;43.592;-79.628;2023-12-14T02:20:04;101780.84;;;35.27;18.10
47935;BME280;33704;43.592;-79.628;2023-12-14T02:20:36;101782.48;;;35.26;18.19
47935;BME280;33704;43.592;-79.628;2023-12-14T02:21:08;101782.86;;;35.26;18.22
47935;BME280;33704;43.592;-79.628;2023-12-14T02:21:42;101779.60;;;35.21;18.48
47935;BME280;33704;43.592;-79.628;2023-12-14T02:22:13;101780.76;;;35.25;19.02
47935;BME280;33704;43.592;-79.628;2023-12-14T02:22:51;101777.15;;;35.24;19.18
47935;BME280;33704;43.592;-79.628;2023-12-14T02:23:24;101775.43;;;35.23;18.54
47935;BME280;33704;43.592;-79.628;2023-12-14T02:23:55;101774.78;;;35.24;19.53
47935;BME280;33704;43.592;-79.628;2023-12-14T02:24:27;101775.17;;;35.23;19.34
47935;BME280;33704;43.592;-79.628;2023-12-14T02:25:00;101776.21;;;35.21;18.99
47935;BME280;33704;43.592;-79.628;2023-12-14T02:25:32;101777.65;;;35.25;18.92
47935;BME280;33704;43.592;-79.628;2023-12-14T02:26:04;101779.87;;;35.29;18.58
47935;BME280;33704;43.592;-79.628;2023-12-14T02:26:36;101780.71;;;35.27;19.18
47935;BME280;33704;43.592;-79.628;2023-12-14T02:27:08;101780.90;;;35.23;19.91
47935;BME280;33704;43.592;-79.628;2023-12-14T02:27:41;101781.38;;;35.28;19.41
47935;BME280;33704;43.592;-79.628;2023-12-14T02:28:12;101778.02;;;35.26;20.08
47935;BME280;33704;43.592;-79.628;2023-12-14T02:28:44;101778.73;;;35.30;19.08
47935;BME280;33704;43.592;-79.628;2023-12-14T02:29:16;101779.10;;;35.37;18.79
47935;BME280;33704;43.592;-79.628;2023-12-14T02:29:48;101776.58;;;35.37;18.62
47935;BME280;33704;43.592;-79.628;2023-12-14T02:30:21;101778.74;;;35.39;18.41
47935;BME280;33704;43.592;-79.628;2023-12-14T02:30:52;101778.86;;;35.40;18.52
47935;BME280;33704;43.592;-79.628;2023-12-14T02:31:24;101778.80;;;35.38;18.55
47935;BME280;33704;43.592;-79.628;2023-12-14T02:31:56;101777.95;;;35.40;18.51
47935;BME280;33704;43.592;-79.628;2023-12-14T02:32:28;101779.54;;;35.38;18.23
47935;BME280;33704;43.592;-79.628;2023-12-14T02:33:02;101779.95;;;35.36;18.28
47935;BME280;33704;43.592;-79.628;2023-12-14T02:33:34;101778.54;;;35.36;18.42
47935;BME280;33704;43.592;-79.628;2023-12-14T02:34:05;101777.25;;;35.35;18.57
47935;BME280;33704;43.592;-79.628;2023-12-14T02:34:37;101777.97;;;35.34;18.38
47935;BME280;33704;43.592;-79.628;2023-12-14T02:35:09;101778.08;;;35.34;18.31
47935;BME280;33704;43.592;-79.628;2023-12-14T02:35:42;101781.57;;;35.36;18.00
47935;BME280;33704;43.592;-79.628;2023-12-14T02:36:14;101779.86;;;35.39;18.03
47935;BME280;33704;43.592;-79.628;2023-12-14T02:36:46;101783.31;;;35.39;18.31
47935;BME280;33704;43.592;-79.628;2023-12-14T02:37:18;101782.36;;;35.33;18.29
47935;BME280;33704;43.592;-79.628;2023-12-14T02:37:50;101782.13;;;35.37;18.04
47935;BME280;33704;43.592;-79.628;2023-12-14T02:38:27;101783.15;;;35.37;18.05
47935;BME280;33704;43.592;-79.628;2023-12-14T02:39:00;101783.85;;;35.36;18.04
47935;BME280;33704;43.592;-79.628;2023-12-14T02:39:31;101782.74;;;35.32;18.82
47935;BME280;33704;43.592;-79.628;2023-12-14T02:40:04;101783.18;;;35.31;18.86
47935;BME280;33704;43.592;-79.628;2023-12-14T02:40:36;101786.05;;;35.27;18.25
47935;BME280;33704;43.592;-79.628;2023-12-14T02:41:11;101787.50;;;35.32;18.12
47935;BME280;33704;43.592;-79.628;2023-12-14T02:41:42;101786.54;;;35.35;18.13
47935;BME280;33704;43.592;-79.628;2023-12-14T02:42:14;101786.47;;;35.36;18.06
47935;BME280;33704;43.592;-79.628;2023-12-14T02:42:46;101788.18;;;35.38;18.10
47935;BME280;33704;43.592;-79.628;2023-12-14T02:43:18;101788.48;;;35.36;18.27
47935;BME280;33704;43.592;-79.628;2023-12-14T02:43:51;101789.05;;;35.34;18.15
47935;BME280;33704;43.592;-79.628;2023-12-14T02:44:23;101791.62;;;35.35;18.34
47935;BME280;33704;43.592;-79.628;2023-12-14T02:44:55;101791.70;;;35.31;18.41